Terminal Aerodrome Forecast
Issued by NWS Cleveland, OH

Home | Current Version | Previous Version | Text Only | Print | Product List | Glossary Off
Versions: 1 2 3 4 5 6 7 8 9 10 11 12 13 14 15 16 17 18 19 20 21 22 23 24 25

000
FTUS41 KCLE 251400 AAA
TAFYNG
TAF AMD
KYNG 251410Z 2514/2612 15011KT 4SM -RA BR SCT030 OVC060
      TEMPO 2514/2516 2SM -RA BR BKN030
     FM251600 17014G20KT P6SM VCSH BKN020
     FM251800 21014G22KT P6SM BKN025 BKN045
     FM252200 24012KT P6SM BKN025 BKN250
     FM260000 23005KT P6SM SCT025 BKN250
     FM260600 VRB03KT 3SM BR BKN250=

USA.gov is the U.S. government's official web portal to all federal, state and local government web resources and services.